createdAt,value
2018-01-24T00:01:10.738Z,18.17
2018-01-24T00:03:38.301Z,17.60
2018-01-24T00:06:06.241Z,17.67
2018-01-24T00:08:33.814Z,19.13
2018-01-24T00:11:01.373Z,17.70
2018-01-24T00:13:29.001Z,22.70
2018-01-24T00:15:56.557Z,18.40
2018-01-24T00:18:24.122Z,17.00
2018-01-24T00:20:51.715Z,18.67
2018-01-24T00:23:20.162Z,19.60
2018-01-24T00:25:47.692Z,21.77
2018-01-24T00:28:15.236Z,21.33
2018-01-24T00:30:42.815Z,21.73
2018-01-24T00:33:10.413Z,20.30
2018-01-24T00:35:38.205Z,21.30
2018-01-24T00:38:05.789Z,20.57
2018-01-24T00:40:33.453Z,20.40
2018-01-24T00:43:01.052Z,22.80
2018-01-24T00:45:28.612Z,21.77
2018-01-24T00:47:56.176Z,21.00
2018-01-24T00:50:23.729Z,20.10
2018-01-24T00:52:51.324Z,22.23
2018-01-24T00:55:18.851Z,23.23
2018-01-24T00:57:46.371Z,22.33
2018-01-24T01:00:13.920Z,23.90
2018-01-24T01:02:41.440Z,24.07
2018-01-24T01:05:08.987Z,15.77
2018-01-24T01:07:36.652Z,22.97
2018-01-24T01:10:04.272Z,22.60
2018-01-24T01:12:31.838Z,22.97
2018-01-24T01:14:59.403Z,23.17
2018-01-24T01:17:26.974Z,22.33
2018-01-24T01:19:54.595Z,21.07
2018-01-24T01:22:22.149Z,23.23
2018-01-24T01:24:49.722Z,20.20
2018-01-24T01:27:17.544Z,18.90
2018-01-24T01:29:45.134Z,23.80
2018-01-24T01:32:12.715Z,20.67
2018-01-24T01:34:40.287Z,19.70
2018-01-24T01:37:07.864Z,18.80
2018-01-24T01:39:35.443Z,23.70
2018-01-24T01:42:03.189Z,23.40
2018-01-24T01:44:30.765Z,25.20
2018-01-24T01:46:58.431Z,26.03
2018-01-24T01:49:26.013Z,25.20
2018-01-24T01:51:53.628Z,24.60
2018-01-24T01:54:21.194Z,24.10
2018-01-24T01:56:49.097Z,25.60
2018-01-24T01:59:16.626Z,23.70
2018-01-24T02:01:44.185Z,25.63
2018-01-24T02:04:11.759Z,25.73
2018-01-24T02:06:39.365Z,25.00
2018-01-24T02:09:06.920Z,26.00
2018-01-24T02:11:34.438Z,27.37
2018-01-24T02:14:02.016Z,24.90
2018-01-24T02:16:29.545Z,25.23
2018-01-24T02:18:57.180Z,20.30
2018-01-24T02:21:24.732Z,22.33
2018-01-24T02:23:52.300Z,22.47
2018-01-24T02:26:19.838Z,22.77
2018-01-24T02:28:47.476Z,20.80
2018-01-24T02:31:15.035Z,21.10
2018-01-24T02:33:42.589Z,25.40
2018-01-24T02:36:10.172Z,21.10
2018-01-24T02:38:49.752Z,21.00
2018-01-24T02:41:17.334Z,19.40
2018-01-24T02:43:44.896Z,21.00
2018-01-24T02:46:12.487Z,18.37
2018-01-24T02:48:40.040Z,18.80
2018-01-24T02:51:07.659Z,17.53
2018-01-24T02:53:35.197Z,19.60
2018-01-24T02:56:02.869Z,16.73
2018-01-24T02:58:30.451Z,16.97
2018-01-24T03:00:58.040Z,18.20
2018-01-24T03:03:25.592Z,17.90
2018-01-24T03:05:53.225Z,17.47
2018-01-24T03:08:20.813Z,17.43
2018-01-24T03:10:48.504Z,17.40
2018-01-24T03:13:16.089Z,16.20
2018-01-24T03:15:43.680Z,16.63
2018-01-24T03:18:11.259Z,16.00
2018-01-24T03:20:38.808Z,19.20
2018-01-24T03:23:06.360Z,16.93
2018-01-24T03:25:33.936Z,16.80
2018-01-24T03:28:01.520Z,15.83
2018-01-24T03:30:29.080Z,15.43
2018-01-24T03:32:56.765Z,16.87
2018-01-24T03:35:24.340Z,15.67
2018-01-24T03:37:51.955Z,17.07
2018-01-24T03:40:19.514Z,17.57
2018-01-24T03:42:47.043Z,15.20
2018-01-24T03:45:14.619Z,17.23
2018-01-24T03:47:42.158Z,17.73
2018-01-24T03:50:09.708Z,16.13
2018-01-24T03:52:37.292Z,17.20
2018-01-24T03:55:04.853Z,16.93
2018-01-24T03:57:32.493Z,17.40
2018-01-24T04:00:00.064Z,18.70
2018-01-24T04:02:27.651Z,20.53
2018-01-24T04:04:55.171Z,18.60
2018-01-24T04:07:22.747Z,18.60
2018-01-24T04:09:50.464Z,20.33
2018-01-24T04:12:18.136Z,19.03
2018-01-24T04:14:45.691Z,19.27
2018-01-24T04:17:13.263Z,20.03
2018-01-24T04:19:40.782Z,19.63
2018-01-24T04:22:08.347Z,19.10
2018-01-24T04:24:35.884Z,20.10
2018-01-24T04:27:03.795Z,19.30
2018-01-24T04:29:31.347Z,20.30
2018-01-24T04:31:58.875Z,21.80
2018-01-24T04:34:26.452Z,21.27
2018-01-24T04:36:54.040Z,18.97
2018-01-24T04:39:21.590Z,21.67
2018-01-24T04:41:49.144Z,19.20
2018-01-24T04:44:16.721Z,19.50
2018-01-24T04:46:44.272Z,19.43
2018-01-24T04:49:11.833Z,19.07
2018-01-24T04:51:39.418Z,20.90
2018-01-24T04:54:07.028Z,20.60
2018-01-24T04:56:34.627Z,20.93
2018-01-24T04:59:02.213Z,19.33
2018-01-24T05:01:29.776Z,20.43
2018-01-24T05:03:57.695Z,20.00
2018-01-24T05:06:25.245Z,19.63
2018-01-24T05:08:52.788Z,18.73
2018-01-24T05:11:20.377Z,20.17
2018-01-24T05:13:47.934Z,20.40
2018-01-24T05:16:15.504Z,18.70
2018-01-24T05:18:43.123Z,19.47
2018-01-24T05:21:11.263Z,22.00
2018-01-24T05:23:38.859Z,20.60
2018-01-24T05:26:06.498Z,20.87
2018-01-24T05:28:34.037Z,21.00
2018-01-24T05:31:01.593Z,22.30
2018-01-24T05:33:29.148Z,20.90
2018-01-24T05:35:56.737Z,18.63
2018-01-24T05:38:24.293Z,21.00
2018-01-24T05:40:51.868Z,20.37
2018-01-24T05:43:19.395Z,19.80
2018-01-24T05:45:46.924Z,20.23
2018-01-24T05:48:14.842Z,19.20
2018-01-24T05:50:42.362Z,20.50
2018-01-24T05:53:10.079Z,22.43
2018-01-24T05:55:37.649Z,18.80
2018-01-24T05:58:05.192Z,19.77
2018-01-24T06:00:32.775Z,17.93
2018-01-24T06:03:00.820Z,19.53
2018-01-24T06:05:28.456Z,17.60
2018-01-24T06:07:56.008Z,18.37
2018-01-24T06:10:23.560Z,19.40
2018-01-24T06:12:51.141Z,20.67
2018-01-24T06:15:18.783Z,20.10
2018-01-24T06:17:46.349Z,19.80
2018-01-24T06:20:13.919Z,20.00
2018-01-24T06:22:41.440Z,21.10
2018-01-24T06:25:09.048Z,21.70
2018-01-24T06:27:36.588Z,22.33
2018-01-24T06:30:04.128Z,20.40
2018-01-24T06:32:31.712Z,20.67
2018-01-24T06:34:59.613Z,23.00
2018-01-24T06:37:27.184Z,22.80
2018-01-24T06:39:54.725Z,21.50
2018-01-24T06:42:22.314Z,22.77
2018-01-24T06:44:50.033Z,22.80
2018-01-24T06:47:17.572Z,20.30
2018-01-24T06:49:45.172Z,19.90
2018-01-24T06:52:12.760Z,18.20
2018-01-24T06:54:40.321Z,19.20
2018-01-24T06:57:07.900Z,19.87
2018-01-24T06:59:35.482Z,17.13
2018-01-24T07:02:03.037Z,19.27
2018-01-24T07:04:30.665Z,17.27
2018-01-24T07:06:58.226Z,17.63
2018-01-24T07:09:25.840Z,13.67
2018-01-24T07:11:53.466Z,16.60
2018-01-24T07:14:40.982Z,16.80
2018-01-24T07:17:08.556Z,16.03
2018-01-24T07:19:36.132Z,17.50
2018-01-24T07:22:03.708Z,16.63
2018-01-24T07:24:31.268Z,16.93
2018-01-24T07:26:58.854Z,18.23
2018-01-24T07:29:26.375Z,17.20
2018-01-24T07:31:53.911Z,16.57
2018-01-24T07:34:21.641Z,16.67
2018-01-24T07:36:49.264Z,15.10
2018-01-24T07:39:16.825Z,16.73
2018-01-24T07:41:45.064Z,15.83
2018-01-24T07:44:12.674Z,16.27
2018-01-24T07:46:40.219Z,15.30
2018-01-24T07:49:07.789Z,16.77
2018-01-24T07:51:35.403Z,15.03
2018-01-24T07:54:03.023Z,15.60
2018-01-24T07:56:30.598Z,15.00
2018-01-24T07:58:58.434Z,15.20
2018-01-24T08:01:25.998Z,14.33
2018-01-24T08:03:53.709Z,14.83
2018-01-24T08:06:21.336Z,14.50
2018-01-24T08:08:48.866Z,13.70
2018-01-24T08:11:16.482Z,13.70
2018-01-24T08:13:44.057Z,12.27
2018-01-24T08:16:11.609Z,10.47
2018-01-24T08:18:39.156Z,12.23
2018-01-24T08:21:06.743Z,12.37
2018-01-24T08:23:34.296Z,11.50
2018-01-24T08:26:02.647Z,11.20
2018-01-24T08:28:30.188Z,10.63
2018-01-24T08:30:57.795Z,11.13
2018-01-24T08:33:25.357Z,10.93
2018-01-24T08:35:52.960Z,11.47
2018-01-24T08:38:20.640Z,10.67
2018-01-24T08:40:48.272Z,9.37
2018-01-24T08:43:15.778Z,7.90
2018-01-24T08:45:43.357Z,6.70
2018-01-24T08:48:10.883Z,9.47
2018-01-24T08:50:38.408Z,6.60
2018-01-24T08:53:05.951Z,8.40
2018-01-24T08:55:33.487Z,8.23
2018-01-24T08:58:01.230Z,7.77
2018-01-24T09:00:28.869Z,7.57
2018-01-24T09:02:56.728Z,7.37
2018-01-24T09:05:24.280Z,7.10
2018-01-24T09:07:51.826Z,7.40
2018-01-24T09:10:19.747Z,7.40
2018-01-24T09:12:47.298Z,6.73
2018-01-24T09:15:14.810Z,6.30
2018-01-24T09:17:42.833Z,7.10
2018-01-24T09:20:10.403Z,7.90
2018-01-24T09:22:37.912Z,5.27
2018-01-24T09:25:05.456Z,5.50
2018-01-24T09:27:32.978Z,5.47
2018-01-24T09:30:00.924Z,4.73
2018-01-24T09:32:28.459Z,5.73
2018-01-24T09:34:56.007Z,5.83
2018-01-24T09:37:24.616Z,5.37
2018-01-24T09:39:52.273Z,5.33
2018-01-24T09:42:19.841Z,4.70
2018-01-24T09:44:47.398Z,4.90
2018-01-24T09:47:14.950Z,4.40
2018-01-24T09:49:42.482Z,4.57
2018-01-24T09:52:10.073Z,4.20
2018-01-24T09:54:37.628Z,4.33
2018-01-24T09:57:05.170Z,3.90
2018-01-24T09:59:32.767Z,3.63
2018-01-24T10:02:00.288Z,4.13
2018-01-24T10:04:27.842Z,4.10
2018-01-24T10:06:55.354Z,3.20
2018-01-24T10:09:22.973Z,2.97
2018-01-24T10:11:50.577Z,3.70
2018-01-24T10:14:18.441Z,3.10
2018-01-24T10:16:45.970Z,3.03
2018-01-24T10:19:13.867Z,3.30
2018-01-24T10:21:41.411Z,2.73
2018-01-24T10:24:08.945Z,3.30
2018-01-24T10:26:36.485Z,2.90
2018-01-24T10:29:04.234Z,2.80
2018-01-24T10:31:31.809Z,3.07
2018-01-24T10:33:59.567Z,3.50
2018-01-24T10:36:27.183Z,2.43
2018-01-24T10:38:54.770Z,4.47
2018-01-24T10:41:22.356Z,3.37
2018-01-24T10:43:49.939Z,3.60
2018-01-24T10:46:17.545Z,3.43
2018-01-24T10:48:45.092Z,3.00
2018-01-24T10:51:12.620Z,3.07
2018-01-24T10:53:40.172Z,3.20
2018-01-24T10:56:07.720Z,2.90
2018-01-24T10:58:35.275Z,3.27
2018-01-24T11:01:02.803Z,2.80
2018-01-24T11:03:30.330Z,2.90
2018-01-24T11:05:57.903Z,2.87
2018-01-24T11:08:25.419Z,3.10
2018-01-24T11:10:52.956Z,2.93
2018-01-24T11:13:20.584Z,2.63
2018-01-24T11:15:48.175Z,2.33
2018-01-24T11:18:15.745Z,2.10
2018-01-24T11:20:43.369Z,2.87
2018-01-24T11:23:11.289Z,1.97
2018-01-24T11:25:38.844Z,2.30
2018-01-24T11:28:06.396Z,2.17
2018-01-24T11:30:33.962Z,2.20
2018-01-24T11:33:01.537Z,2.60
2018-01-24T11:35:29.115Z,2.30
2018-01-24T11:37:56.975Z,2.40
2018-01-24T11:40:24.537Z,2.10
2018-01-24T11:42:52.085Z,2.93
2018-01-24T11:45:19.643Z,2.50
2018-01-24T11:47:47.163Z,2.37
2018-01-24T11:50:15.092Z,2.00
2018-01-24T11:52:42.669Z,2.30
2018-01-24T11:55:10.252Z,2.50
2018-01-24T11:57:37.796Z,2.20
2018-01-24T12:00:05.342Z,2.20
2018-01-24T12:02:32.884Z,2.53
2018-01-24T12:05:00.783Z,3.30
2018-01-24T12:07:28.352Z,2.90
2018-01-24T12:09:55.875Z,2.50
2018-01-24T12:12:23.505Z,2.87
2018-01-24T12:14:51.400Z,2.63
2018-01-24T12:17:19.061Z,2.40
2018-01-24T12:19:46.600Z,2.57
2018-01-24T12:22:14.168Z,2.40
2018-01-24T12:24:41.735Z,2.20
2018-01-24T12:27:09.342Z,1.70
2018-01-24T12:29:36.864Z,1.97
2018-01-24T12:32:04.553Z,2.10
2018-01-24T12:34:32.491Z,1.80
2018-01-24T12:37:00.030Z,2.00
2018-01-24T12:39:27.620Z,1.77
2018-01-24T12:41:55.190Z,1.60
2018-01-24T12:44:22.708Z,1.50
2018-01-24T12:46:50.648Z,2.00
2018-01-24T12:49:18.223Z,1.53
2018-01-24T12:51:45.868Z,1.93
2018-01-24T12:54:13.537Z,1.50
2018-01-24T12:56:41.499Z,1.03
2018-01-24T12:59:09.028Z,1.40
2018-01-24T13:01:36.649Z,1.27
2018-01-24T13:04:04.163Z,1.23
2018-01-24T13:06:31.845Z,1.17
2018-01-24T13:08:59.632Z,1.17
2018-01-24T13:11:27.540Z,0.90
2018-01-24T13:13:55.199Z,1.37
2018-01-24T13:16:22.709Z,1.00
2018-01-24T13:18:50.308Z,1.60
2018-01-24T13:21:17.856Z,1.30
2018-01-24T13:23:45.390Z,1.20
2018-01-24T13:26:13.257Z,1.30
2018-01-24T13:28:40.774Z,1.20
2018-01-24T13:31:08.305Z,1.10
2018-01-24T13:33:36.135Z,1.10
2018-01-24T13:36:03.680Z,1.33
2018-01-24T13:38:31.225Z,1.30
2018-01-24T13:40:58.794Z,1.17
2018-01-24T13:43:26.344Z,1.00
2018-01-24T13:45:53.884Z,1.00
2018-01-24T13:48:21.416Z,1.20
2018-01-24T13:50:49.122Z,0.93
2018-01-24T13:53:16.667Z,0.90
2018-01-24T13:55:44.233Z,1.07
2018-01-24T13:58:11.739Z,1.07
2018-01-24T14:00:39.959Z,0.90
2018-01-24T14:03:07.500Z,1.20
2018-01-24T14:05:35.093Z,1.30
2018-01-24T14:08:02.653Z,1.47
2018-01-24T14:10:30.191Z,1.10
2018-01-24T14:12:57.751Z,0.90
2018-01-24T14:15:25.423Z,1.07
2018-01-24T14:17:52.988Z,1.20
2018-01-24T14:20:20.585Z,1.00
2018-01-24T14:22:48.176Z,1.20
2018-01-24T14:25:15.691Z,0.90
2018-01-24T14:27:43.223Z,1.10
2018-01-24T14:30:10.800Z,1.10
2018-01-24T14:32:38.647Z,1.00
2018-01-24T14:35:06.167Z,1.10
2018-01-24T14:37:33.694Z,1.27
2018-01-24T14:40:01.250Z,1.10
2018-01-24T14:42:28.770Z,0.90
2018-01-24T14:44:56.317Z,0.90
2018-01-24T14:47:24.149Z,1.00
2018-01-24T14:49:51.706Z,0.90
2018-01-24T14:52:19.302Z,1.30
2018-01-24T14:54:46.840Z,0.83
2018-01-24T14:57:14.380Z,0.90
2018-01-24T14:59:42.035Z,1.00
2018-01-24T15:02:09.562Z,1.00
2018-01-24T15:04:37.099Z,0.83
2018-01-24T15:07:04.664Z,1.17
2018-01-24T15:09:32.208Z,0.83
2018-01-24T15:11:59.848Z,0.90
2018-01-24T15:14:27.406Z,1.20
2018-01-24T15:16:54.924Z,0.83
2018-01-24T15:19:22.521Z,1.10
2018-01-24T15:21:50.074Z,0.90
2018-01-24T15:24:18.038Z,1.17
2018-01-24T15:26:45.593Z,0.90
2018-01-24T15:29:13.168Z,1.10
2018-01-24T15:31:40.882Z,1.13
2018-01-24T15:34:08.436Z,1.40
2018-01-24T15:36:36.021Z,1.40
2018-01-24T15:39:03.606Z,1.30
2018-01-24T15:41:31.478Z,1.27
2018-01-24T15:43:59.026Z,0.77
2018-01-24T15:46:26.556Z,1.50
2018-01-24T15:48:54.151Z,1.53
2018-01-24T15:51:21.720Z,2.33
2018-01-24T15:53:49.241Z,37.43
2018-01-24T15:56:17.541Z,20.53
2018-01-24T15:58:45.092Z,14.27
2018-01-24T16:01:12.772Z,5.37
2018-01-24T16:03:40.329Z,10.37
2018-01-24T16:06:07.868Z,5.13
2018-01-24T16:08:35.412Z,3.23
2018-01-24T16:11:02.968Z,1.60
2018-01-24T16:13:30.488Z,4.63
2018-01-24T16:15:58.350Z,1.93
2018-01-24T16:18:25.873Z,1.80
2018-01-24T16:20:53.427Z,1.70
2018-01-24T16:23:21.017Z,1.53
2018-01-24T16:25:48.557Z,1.67
2018-01-24T16:28:16.103Z,1.30
2018-01-24T16:30:43.658Z,1.33
2018-01-24T16:33:11.205Z,1.83
2018-01-24T16:35:38.820Z,1.73
2018-01-24T16:38:06.336Z,1.80
2018-01-24T16:40:33.870Z,2.20
2018-01-24T16:43:01.446Z,2.30
2018-01-24T16:45:28.973Z,1.90
2018-01-24T16:47:56.534Z,2.00
2018-01-24T16:50:24.085Z,1.67
2018-01-24T16:52:51.605Z,1.83
2018-01-24T16:55:19.130Z,1.67
2018-01-24T16:57:46.687Z,1.27
2018-01-24T17:00:14.282Z,1.30
2018-01-24T17:02:41.805Z,1.60
2018-01-24T17:05:09.376Z,1.20
2018-01-24T17:07:36.903Z,1.30
2018-01-24T17:10:04.422Z,1.40
2018-01-24T17:12:31.959Z,1.43
2018-01-24T17:14:59.533Z,1.23
2018-01-24T17:17:27.125Z,4.13
2018-01-24T17:19:54.691Z,1.80
2018-01-24T17:22:22.219Z,2.37
2018-01-24T17:24:50.086Z,1.20
2018-01-24T17:27:17.596Z,2.07
2018-01-24T17:29:45.108Z,2.17
2018-01-24T17:32:12.666Z,1.80
2018-01-24T17:34:40.277Z,1.70
2018-01-24T17:37:09.099Z,1.13
2018-01-24T17:39:36.632Z,1.63
2018-01-24T17:42:04.216Z,1.60
2018-01-24T17:44:31.784Z,1.50
2018-01-24T17:46:59.297Z,1.33
2018-01-24T17:49:26.995Z,1.50
2018-01-24T17:51:54.502Z,1.20
2018-01-24T17:54:22.049Z,1.60
2018-01-24T17:56:49.622Z,1.03
2018-01-24T17:59:17.147Z,1.07
2018-01-24T18:01:44.691Z,1.37
2018-01-24T18:04:12.213Z,1.10
2018-01-24T18:06:40.067Z,1.30
2018-01-24T18:09:10.560Z,1.13
2018-01-24T18:11:38.507Z,1.43
2018-01-24T18:14:07.199Z,1.47
2018-01-24T18:16:34.896Z,1.20
2018-01-24T18:19:03.045Z,1.63
2018-01-24T18:21:30.607Z,1.87
2018-01-24T18:23:58.277Z,1.43
2018-01-24T18:26:25.835Z,1.20
2018-01-24T18:28:53.372Z,1.67
2018-01-24T18:31:21.348Z,3.40
2018-01-24T18:33:48.907Z,4.03
2018-01-24T18:36:17.720Z,6.13
2018-01-24T18:38:47.514Z,2.17
2018-01-24T18:41:18.142Z,2.53
2018-01-24T18:43:47.131Z,2.30
2018-01-24T18:46:14.815Z,1.40
2018-01-24T18:48:44.936Z,2.60
2018-01-24T18:51:12.504Z,1.60
2018-01-24T18:53:40.222Z,1.40
2018-01-24T18:56:07.795Z,1.20
2018-01-24T18:58:35.363Z,1.57
2018-01-24T19:01:02.892Z,1.83
2018-01-24T19:03:30.469Z,1.57
2018-01-24T19:05:58.074Z,1.33
2018-01-24T19:08:25.640Z,0.90
2018-01-24T19:10:53.537Z,1.20
2018-01-24T19:13:21.076Z,1.10
2018-01-24T19:15:48.687Z,1.20
2018-01-24T19:18:16.262Z,1.97
2018-01-24T19:20:44.196Z,2.33
2018-01-24T19:23:11.800Z,1.63
2018-01-24T19:25:39.353Z,1.50
2018-01-24T19:28:07.257Z,1.87
2018-01-24T19:30:34.816Z,2.70
2018-01-24T19:33:02.743Z,1.33
2018-01-24T19:35:30.274Z,1.37
2018-01-24T19:37:57.792Z,1.63
2018-01-24T19:40:25.683Z,1.73
2018-01-24T19:42:53.316Z,1.50
2018-01-24T19:45:20.862Z,1.73
2018-01-24T19:47:48.439Z,2.10
2018-01-24T19:50:16.056Z,2.83
2018-01-24T19:52:43.626Z,1.73
2018-01-24T19:55:11.207Z,2.13
2018-01-24T19:57:38.837Z,2.17
2018-01-24T20:00:06.436Z,1.70
2018-01-24T20:02:34.368Z,1.33
2018-01-24T20:05:01.922Z,2.20
2018-01-24T20:07:29.446Z,1.97
2018-01-24T20:09:57.048Z,1.70
2018-01-24T20:12:24.610Z,1.60
2018-01-24T20:14:52.215Z,1.50
2018-01-24T20:17:19.879Z,1.70
2018-01-24T20:19:47.475Z,2.47
2018-01-24T20:22:15.038Z,2.00
2018-01-24T20:24:42.665Z,2.20
2018-01-24T20:27:10.416Z,2.13
2018-01-24T20:29:38.250Z,1.80
2018-01-24T20:32:05.856Z,2.00
2018-01-24T20:34:33.615Z,2.10
2018-01-24T20:37:01.212Z,1.57
2018-01-24T20:39:28.766Z,2.40
2018-01-24T20:41:56.419Z,1.83
2018-01-24T20:44:23.990Z,2.47
2018-01-24T20:46:51.652Z,2.10
2018-01-24T20:49:19.231Z,2.53
2018-01-24T20:51:46.833Z,2.20
2018-01-24T20:54:14.391Z,1.90
2018-01-24T20:56:41.971Z,2.10
2018-01-24T20:59:09.494Z,2.50
2018-01-24T21:01:37.036Z,1.77
2018-01-24T21:04:05.598Z,1.90
2018-01-24T21:06:33.198Z,2.30
2018-01-24T21:09:00.722Z,2.20
2018-01-24T21:11:28.259Z,2.93
2018-01-24T21:13:55.866Z,2.00
2018-01-24T21:16:23.417Z,2.63
2018-01-24T21:18:50.944Z,2.73
2018-01-24T21:21:18.488Z,2.40
2018-01-24T21:23:46.017Z,2.47
2018-01-24T21:26:13.584Z,2.67
2018-01-24T21:28:48.103Z,2.83
2018-01-24T21:31:27.506Z,3.27
2018-01-24T21:34:07.795Z,2.73
2018-01-24T21:36:35.454Z,0.90
2018-01-24T21:39:03.006Z,1.40
2018-01-24T21:41:30.540Z,1.97
2018-01-24T21:43:58.438Z,1.73
2018-01-24T21:46:25.988Z,1.40
2018-01-24T21:48:53.506Z,1.40
2018-01-24T21:51:21.358Z,1.50
2018-01-24T21:53:48.896Z,1.50
2018-01-24T21:56:16.412Z,1.43
2018-01-24T21:58:44.048Z,1.50
2018-01-24T22:01:11.577Z,0.80
2018-01-24T22:03:39.156Z,1.40
2018-01-24T22:06:06.773Z,0.97
2018-01-24T22:08:34.316Z,0.90
2018-01-24T22:11:01.888Z,0.70
2018-01-24T22:13:29.439Z,0.90
2018-01-24T22:15:56.991Z,0.90
2018-01-24T22:18:24.536Z,0.87
2018-01-24T22:20:52.155Z,0.60
2018-01-24T22:23:19.701Z,0.87
2018-01-24T22:25:47.211Z,1.00
2018-01-24T22:28:14.770Z,1.00
2018-01-24T22:30:42.311Z,0.90
2018-01-24T22:33:09.847Z,0.90
2018-01-24T22:35:37.360Z,1.47
2018-01-24T22:38:04.924Z,0.80
2018-01-24T22:40:32.432Z,1.03
2018-01-24T22:42:59.959Z,1.20
2018-01-24T22:45:27.549Z,1.40
2018-01-24T22:47:55.097Z,1.33
2018-01-24T22:50:22.654Z,1.30
2018-01-24T22:52:50.342Z,1.73
2018-01-24T22:55:17.903Z,1.47
2018-01-24T22:57:45.444Z,1.70
2018-01-24T23:00:25.051Z,1.50
2018-01-24T23:02:52.572Z,1.40
2018-01-24T23:05:20.117Z,1.63
2018-01-24T23:07:47.675Z,1.37
2018-01-24T23:10:15.239Z,1.30
2018-01-24T23:12:42.750Z,1.40
2018-01-24T23:15:10.370Z,1.60
2018-01-24T23:17:37.906Z,1.40
2018-01-24T23:20:05.463Z,1.37
2018-01-24T23:22:33.010Z,1.30
2018-01-24T23:25:00.601Z,1.53
2018-01-24T23:27:28.232Z,1.43
2018-01-24T23:29:55.801Z,1.47
2018-01-24T23:32:23.332Z,1.17
2018-01-24T23:34:50.884Z,1.03
2018-01-24T23:37:18.417Z,1.60
2018-01-24T23:39:45.988Z,1.40
2018-01-24T23:42:13.501Z,1.53
2018-01-24T23:44:41.055Z,1.00
2018-01-24T23:47:08.610Z,1.23
2018-01-24T23:49:36.176Z,1.10
2018-01-24T23:52:03.707Z,1.20
2018-01-24T23:54:31.253Z,1.30
2018-01-24T23:56:58.853Z,1.30
2018-01-24T23:59:26.376Z,1.03
